createdAt,value
2023-04-16T00:02:12.891Z,8.39
2023-04-16T00:05:15.038Z,8.43
2023-04-16T00:08:16.648Z,8.49
2023-04-16T00:11:18.325Z,8.49
2023-04-16T00:14:20.301Z,8.56
2023-04-16T00:17:21.991Z,8.62
2023-04-16T00:20:23.833Z,8.55
2023-04-16T00:23:25.793Z,8.49
2023-04-16T00:26:27.620Z,8.47
2023-04-16T00:29:31.032Z,8.51
2023-04-16T00:32:32.686Z,8.49
2023-04-16T00:35:34.901Z,8.46
2023-04-16T00:38:37.436Z,8.54
2023-04-16T00:41:39.131Z,8.65
2023-04-16T00:44:40.920Z,8.61
2023-04-16T00:47:42.749Z,8.59
2023-04-16T00:50:44.487Z,8.50
2023-04-16T00:53:47.152Z,8.47
2023-04-16T00:56:49.212Z,8.39
2023-04-16T00:59:51.593Z,8.31
2023-04-16T01:02:54.721Z,8.44
2023-04-16T01:05:57.002Z,8.33
2023-04-16T01:08:58.713Z,8.33
2023-04-16T01:12:00.555Z,8.30
2023-04-16T01:15:02.524Z,8.25
2023-04-16T01:18:20.263Z,8.24
2023-04-16T01:21:22.151Z,8.31
2023-04-16T01:24:23.868Z,8.44
2023-04-16T01:27:25.725Z,8.32
2023-04-16T01:30:27.438Z,8.49
2023-04-16T01:33:41.927Z,8.34
2023-04-16T01:36:45.911Z,8.31
2023-04-16T01:39:47.760Z,8.30
2023-04-16T01:42:49.580Z,8.26
2023-04-16T01:45:53.962Z,8.24
2023-04-16T01:48:55.983Z,8.23
2023-04-16T01:51:57.940Z,8.17
2023-04-16T01:54:59.631Z,8.24
2023-04-16T01:58:01.315Z,8.10
2023-04-16T02:01:07.401Z,8.02
2023-04-16T02:04:10.957Z,7.97
2023-04-16T02:07:13.078Z,7.98
2023-04-16T02:10:14.774Z,7.94
2023-04-16T02:13:16.768Z,7.91
2023-04-16T02:16:20.998Z,7.87
2023-04-16T02:19:28.763Z,7.84
2023-04-16T02:22:30.898Z,7.84
2023-04-16T02:25:33.045Z,7.95
2023-04-16T02:28:34.838Z,7.95
2023-04-16T02:31:37.251Z,7.92
2023-04-16T02:34:40.356Z,7.84
2023-04-16T02:37:42.220Z,7.92
2023-04-16T02:40:44.020Z,7.90
2023-04-16T02:43:46.354Z,7.87
2023-04-16T02:46:47.878Z,7.85
2023-04-16T02:49:49.678Z,7.92
2023-04-16T02:52:52.174Z,7.88
2023-04-16T02:55:55.952Z,7.80
2023-04-16T02:58:57.770Z,7.79
2023-04-16T03:01:59.875Z,7.75
2023-04-16T03:05:02.192Z,7.86
2023-04-16T03:08:04.654Z,7.80
2023-04-16T03:11:06.527Z,7.71
2023-04-16T03:14:08.140Z,7.70
2023-04-16T03:17:09.959Z,7.64
2023-04-16T03:20:12.302Z,7.63
2023-04-16T03:23:13.930Z,7.59
2023-04-16T03:26:15.628Z,7.57
2023-04-16T03:29:17.633Z,7.53
2023-04-16T03:32:19.994Z,7.48
2023-04-16T03:35:21.952Z,7.40
2023-04-16T03:38:26.161Z,7.47
2023-04-16T03:41:30.556Z,7.47
2023-04-16T03:44:33.376Z,7.44
2023-04-16T03:47:36.182Z,7.33
2023-04-16T03:50:38.972Z,7.32
2023-04-16T03:53:43.441Z,7.34
2023-04-16T03:56:45.563Z,7.31
2023-04-16T03:59:47.952Z,7.30
2023-04-16T04:02:51.931Z,7.25
2023-04-16T04:05:54.977Z,7.26
2023-04-16T04:09:05.614Z,7.28
2023-04-16T04:12:08.091Z,7.23
2023-04-16T04:15:10.745Z,7.22
2023-04-16T04:18:12.454Z,7.24
2023-04-16T04:21:14.190Z,7.25
2023-04-16T04:24:15.871Z,7.16
2023-04-16T04:27:17.688Z,7.29
2023-04-16T04:30:19.579Z,7.17
2023-04-16T04:33:21.451Z,7.23
2023-04-16T04:36:23.152Z,7.32
2023-04-16T04:39:25.111Z,7.33
2023-04-16T04:42:27.161Z,7.17
2023-04-16T04:45:31.968Z,7.15
2023-04-16T04:48:34.091Z,7.07
2023-04-16T04:51:36.303Z,7.09
2023-04-16T04:54:41.628Z,7.12
2023-04-16T04:57:43.334Z,7.17
2023-04-16T05:00:45.454Z,7.12
2023-04-16T05:03:47.169Z,7.07
2023-04-16T05:06:49.100Z,7.08
2023-04-16T05:09:51.185Z,7.12
2023-04-16T05:12:52.801Z,7.12
2023-04-16T05:15:54.518Z,7.19
2023-04-16T05:18:56.631Z,7.12
2023-04-16T05:21:58.447Z,7.11
2023-04-16T05:25:00.221Z,7.21
2023-04-16T05:28:01.912Z,7.23
2023-04-16T05:31:03.959Z,7.20
2023-04-16T05:34:05.956Z,7.23
2023-04-16T05:37:07.662Z,7.30
2023-04-16T05:40:09.976Z,7.36
2023-04-16T05:43:11.784Z,7.39
2023-04-16T05:46:13.564Z,7.36
2023-04-16T05:49:15.672Z,7.45
2023-04-16T05:52:17.360Z,7.47
2023-04-16T05:55:19.190Z,7.53
2023-04-16T05:58:20.988Z,7.54
2023-04-16T06:01:22.917Z,7.57
2023-04-16T06:04:24.716Z,7.59
2023-04-16T06:07:26.397Z,7.63
2023-04-16T06:10:28.376Z,7.65
2023-04-16T06:13:30.279Z,7.72
2023-04-16T06:16:32.213Z,7.74
2023-04-16T06:19:34.065Z,7.84
2023-04-16T06:22:35.904Z,7.78
2023-04-16T06:25:37.662Z,7.85
2023-04-16T06:28:39.333Z,7.82
2023-04-16T06:31:41.380Z,7.86
2023-04-16T06:34:43.426Z,7.88
2023-04-16T06:37:45.462Z,7.95
2023-04-16T06:40:49.282Z,7.90
2023-04-16T06:43:51.234Z,7.94
2023-04-16T06:46:52.936Z,7.98
2023-04-16T06:49:54.663Z,8.03
2023-04-16T06:52:56.629Z,8.04
2023-04-16T06:55:58.282Z,8.11
2023-04-16T06:59:01.109Z,8.11
2023-04-16T07:02:02.976Z,8.14
2023-04-16T07:05:05.165Z,8.14
2023-04-16T07:08:07.059Z,8.19
2023-04-16T07:11:08.728Z,8.27
2023-04-16T07:14:10.602Z,8.47
2023-04-16T07:17:12.553Z,8.58
2023-04-16T07:20:14.457Z,8.70
2023-04-16T07:23:16.163Z,8.76
2023-04-16T07:26:18.018Z,8.83
2023-04-16T07:29:19.731Z,8.94
2023-04-16T07:32:22.741Z,9.04
2023-04-16T07:35:24.475Z,9.11
2023-04-16T07:38:26.402Z,9.10
2023-04-16T07:41:29.653Z,9.13
2023-04-16T07:44:31.629Z,9.18
2023-04-16T07:47:33.909Z,9.10
2023-04-16T07:50:36.393Z,8.98
2023-04-16T07:53:38.333Z,9.01
2023-04-16T07:56:40.068Z,8.98
2023-04-16T07:59:41.873Z,9.00
2023-04-16T08:02:44.377Z,8.94
2023-04-16T08:05:46.333Z,9.04
2023-04-16T08:08:47.966Z,9.22
2023-04-16T08:11:50.072Z,9.43
2023-04-16T08:14:53.191Z,9.49
2023-04-16T08:17:54.953Z,9.53
2023-04-16T08:20:56.775Z,9.53
2023-04-16T08:23:58.370Z,9.58
2023-04-16T08:27:11.246Z,9.68
2023-04-16T08:30:19.490Z,9.71
2023-04-16T08:33:21.522Z,9.64
2023-04-16T08:36:23.613Z,9.76
2023-04-16T08:39:25.745Z,9.78
2023-04-16T08:42:37.664Z,9.85
2023-04-16T08:45:41.936Z,10.06
2023-04-16T08:48:49.737Z,10.11
2023-04-16T08:51:54.096Z,10.13
2023-04-16T08:55:15.786Z,10.43
2023-04-16T08:58:24.591Z,10.37
2023-04-16T09:01:27.112Z,10.29
2023-04-16T09:04:29.546Z,10.24
2023-04-16T09:07:32.514Z,10.16
2023-04-16T09:10:34.676Z,10.05
2023-04-16T09:13:38.044Z,10.21
2023-04-16T09:16:41.112Z,10.26
2023-04-16T09:19:43.043Z,10.03
2023-04-16T09:22:46.581Z,9.84
2023-04-16T09:25:48.434Z,9.70
2023-04-16T09:28:52.793Z,9.53
2023-04-16T09:32:09.279Z,9.56
2023-04-16T09:35:10.955Z,9.61
2023-04-16T09:38:13.832Z,9.60
2023-04-16T09:41:18.908Z,9.55
2023-04-16T09:44:21.644Z,9.54
2023-04-16T09:47:25.960Z,9.48
2023-04-16T09:50:27.522Z,9.42
2023-04-16T09:53:31.632Z,9.51
2023-04-16T09:56:34.022Z,9.43
2023-04-16T09:59:36.446Z,9.37
2023-04-16T10:02:42.452Z,9.32
2023-04-16T10:05:44.776Z,9.30
2023-04-16T10:09:00.890Z,9.31
2023-04-16T10:12:03.007Z,9.32
2023-04-16T10:15:05.176Z,9.44
2023-04-16T10:18:07.926Z,9.46
2023-04-16T10:21:13.083Z,9.51
2023-04-16T10:24:17.623Z,9.48
2023-04-16T10:27:19.935Z,9.47
2023-04-16T10:30:22.707Z,9.52
2023-04-16T10:33:28.209Z,9.45
2023-04-16T10:36:30.441Z,9.52
2023-04-16T10:39:37.320Z,9.55
2023-04-16T10:42:39.056Z,9.52
2023-04-16T10:45:40.939Z,9.45
2023-04-16T10:48:49.725Z,9.22
2023-04-16T10:52:01.135Z,9.09
2023-04-16T10:55:02.812Z,8.99
2023-04-16T10:58:27.918Z,8.89
2023-04-16T11:01:36.793Z,8.83
2023-04-16T11:04:40.410Z,8.84
2023-04-16T11:07:49.622Z,8.82
2023-04-16T11:10:51.796Z,8.90
2023-04-16T11:13:56.521Z,8.88
2023-04-16T11:16:58.281Z,8.88
2023-04-16T11:20:00.393Z,8.96
2023-04-16T11:23:02.200Z,9.02
2023-04-16T11:26:03.914Z,8.91
2023-04-16T11:29:17.294Z,8.88
2023-04-16T11:32:25.019Z,8.97
2023-04-16T11:35:27.433Z,9.02
2023-04-16T11:38:41.245Z,8.96
2023-04-16T11:41:52.687Z,8.97
2023-04-16T11:44:56.187Z,8.88
2023-04-16T11:47:58.227Z,8.76
2023-04-16T11:51:00.236Z,8.77
2023-04-16T11:54:02.388Z,8.82
2023-04-16T11:57:06.916Z,8.82
2023-04-16T12:00:11.293Z,8.81
2023-04-16T12:03:16.274Z,8.95
2023-04-16T12:06:18.124Z,9.12
2023-04-16T12:09:27.432Z,9.18
2023-04-16T12:12:32.306Z,9.24
2023-04-16T12:15:47.435Z,9.35
2023-04-16T12:19:00.654Z,9.52
2023-04-16T12:22:02.602Z,9.48
2023-04-16T12:25:07.911Z,9.41
2023-04-16T12:28:10.456Z,9.32
2023-04-16T12:31:12.562Z,9.25
2023-04-16T12:34:15.577Z,9.22
2023-04-16T12:37:17.165Z,9.17
2023-04-16T12:40:19.100Z,9.14
2023-04-16T12:43:21.522Z,9.17
2023-04-16T12:46:23.338Z,9.20
2023-04-16T12:49:25.338Z,9.21
2023-04-16T12:52:27.304Z,9.25
2023-04-16T12:55:29.360Z,9.33
2023-04-16T12:58:31.133Z,9.32
2023-04-16T13:01:36.210Z,9.34
2023-04-16T13:04:38.633Z,9.32
2023-04-16T13:07:41.356Z,9.41
2023-04-16T13:10:43.228Z,9.45
2023-04-16T13:13:45.604Z,9.65
2023-04-16T13:16:47.478Z,9.79
2023-04-16T13:19:49.496Z,10.05
2023-04-16T13:22:51.496Z,10.37
2023-04-16T13:25:53.420Z,10.59
2023-04-16T13:28:55.787Z,10.85
2023-04-16T13:31:57.932Z,11.21
2023-04-16T13:34:59.995Z,11.64
2023-04-16T13:38:01.947Z,11.82
2023-04-16T13:41:04.681Z,12.15
2023-04-16T13:44:06.757Z,12.25
2023-04-16T13:47:08.829Z,12.62
2023-04-16T13:50:11.219Z,12.75
2023-04-16T13:53:13.949Z,12.79
2023-04-16T13:56:15.674Z,12.75
2023-04-16T13:59:17.887Z,12.83
2023-04-16T14:02:20.730Z,12.81
2023-04-16T14:05:25.166Z,12.89
2023-04-16T14:08:28.649Z,12.78
2023-04-16T14:11:31.246Z,12.40
2023-04-16T14:14:33.427Z,11.98
2023-04-16T14:17:37.263Z,11.76
2023-04-16T14:20:40.287Z,11.88
2023-04-16T14:23:42.052Z,12.16
2023-04-16T14:26:44.484Z,12.46
2023-04-16T14:29:47.064Z,12.58
2023-04-16T14:32:48.746Z,12.67
2023-04-16T14:35:51.487Z,12.56
2023-04-16T14:38:53.310Z,12.35
2023-04-16T14:41:55.261Z,12.12
2023-04-16T14:44:57.018Z,11.82
2023-04-16T14:47:58.922Z,11.64
2023-04-16T14:51:00.788Z,11.58
2023-04-16T14:54:04.864Z,11.52
2023-04-16T14:57:06.773Z,11.50
2023-04-16T15:00:10.585Z,11.51
2023-04-16T15:03:12.941Z,11.54
2023-04-16T15:06:16.575Z,11.70
2023-04-16T15:09:18.433Z,11.95
2023-04-16T15:12:20.227Z,12.19
2023-04-16T15:15:22.299Z,12.49
2023-04-16T15:18:24.271Z,12.69
2023-04-16T15:21:28.071Z,12.67
2023-04-16T15:24:29.710Z,12.68
2023-04-16T15:27:31.597Z,12.66
2023-04-16T15:30:33.546Z,12.78
2023-04-16T15:33:35.552Z,12.91
2023-04-16T15:36:37.403Z,12.92
2023-04-16T15:39:39.252Z,12.76
2023-04-16T15:42:41.161Z,12.95
2023-04-16T15:45:43.235Z,13.15
2023-04-16T15:48:44.923Z,13.00
2023-04-16T15:51:46.972Z,12.71
2023-04-16T15:54:49.436Z,12.38
2023-04-16T15:57:52.427Z,12.08
2023-04-16T16:00:54.663Z,11.84
2023-04-16T16:03:58.075Z,11.75
2023-04-16T16:07:00.121Z,11.70
2023-04-16T16:10:02.046Z,11.68
2023-04-16T16:13:05.661Z,11.73
2023-04-16T16:16:07.591Z,11.74
2023-04-16T16:19:09.707Z,11.74
2023-04-16T16:22:13.003Z,11.79
2023-04-16T16:25:14.880Z,11.89
2023-04-16T16:28:16.909Z,11.96
2023-04-16T16:31:18.975Z,12.13
2023-04-16T16:34:21.580Z,12.26
2023-04-16T16:37:23.340Z,12.38
2023-04-16T16:40:25.581Z,12.34
2023-04-16T16:43:27.486Z,12.25
2023-04-16T16:46:29.614Z,12.19
2023-04-16T16:49:31.401Z,12.16
2023-04-16T16:52:33.214Z,12.17
2023-04-16T16:55:35.882Z,12.31
2023-04-16T16:58:37.620Z,12.64
2023-04-16T17:01:42.083Z,12.73
2023-04-16T17:04:44.215Z,12.48
2023-04-16T17:07:46.291Z,12.10
2023-04-16T17:10:48.078Z,11.83
2023-04-16T17:13:49.978Z,11.57
2023-04-16T17:16:52.230Z,11.35
2023-04-16T17:19:54.217Z,11.21
2023-04-16T17:22:56.087Z,11.14
2023-04-16T17:25:59.789Z,11.02
2023-04-16T17:29:01.813Z,10.90
2023-04-16T17:32:04.459Z,10.87
2023-04-16T17:35:06.930Z,10.81
2023-04-16T17:38:08.784Z,10.76
2023-04-16T17:41:10.977Z,10.68
2023-04-16T17:44:13.182Z,10.59
2023-04-16T17:47:15.340Z,10.44
2023-04-16T17:50:17.406Z,10.37
2023-04-16T17:53:19.087Z,10.26
2023-04-16T17:56:21.986Z,10.19
2023-04-16T17:59:23.957Z,10.09
2023-04-16T18:02:26.126Z,10.11
2023-04-16T18:05:28.145Z,10.21
2023-04-16T18:08:30.398Z,10.20
2023-04-16T18:11:32.198Z,10.21
2023-04-16T18:14:35.526Z,10.21
2023-04-16T18:17:37.277Z,10.19
2023-04-16T18:20:39.139Z,10.11
2023-04-16T18:23:42.256Z,9.98
2023-04-16T18:26:46.932Z,9.97
2023-04-16T18:29:49.517Z,9.96
2023-04-16T18:33:11.451Z,9.95
2023-04-16T18:36:13.485Z,9.88
2023-04-16T18:39:16.317Z,9.79
2023-04-16T18:42:18.356Z,9.88
2023-04-16T18:45:21.842Z,10.00
2023-04-16T18:48:24.207Z,9.99
2023-04-16T18:51:27.451Z,9.88
2023-04-16T18:54:29.230Z,9.74
2023-04-16T18:57:31.244Z,9.56
2023-04-16T19:00:33.069Z,9.38
2023-04-16T19:03:36.154Z,9.32
2023-04-16T19:06:38.464Z,9.46
2023-04-16T19:09:40.404Z,9.32
2023-04-16T19:12:42.215Z,9.21
2023-04-16T19:15:43.958Z,9.15
2023-04-16T19:18:45.857Z,9.16
2023-04-16T19:21:47.589Z,9.14
2023-04-16T19:24:49.750Z,9.12
2023-04-16T19:27:51.894Z,9.09
2023-04-16T19:30:54.072Z,8.96
2023-04-16T19:33:56.136Z,8.77
2023-04-16T19:36:57.967Z,8.58
2023-04-16T19:39:59.861Z,8.43
2023-04-16T19:43:01.872Z,8.55
2023-04-16T19:46:03.658Z,8.49
2023-04-16T19:49:05.617Z,8.43
2023-04-16T19:52:07.211Z,8.39
2023-04-16T19:55:09.329Z,8.47
2023-04-16T19:58:11.214Z,8.46
2023-04-16T20:01:13.204Z,8.49
2023-04-16T20:04:15.127Z,8.38
2023-04-16T20:07:17.304Z,8.49
2023-04-16T20:10:19.160Z,8.46
2023-04-16T20:13:21.255Z,8.59
2023-04-16T20:16:23.598Z,8.65
2023-04-16T20:19:29.990Z,8.61
2023-04-16T20:22:31.874Z,8.56
2023-04-16T20:25:33.800Z,8.56
2023-04-16T20:28:36.362Z,8.59
2023-04-16T20:31:37.985Z,8.65
2023-04-16T20:34:40.652Z,8.84
2023-04-16T20:37:43.361Z,8.74
2023-04-16T20:40:45.109Z,8.76
2023-04-16T20:43:50.343Z,8.86
2023-04-16T20:46:55.778Z,8.88
2023-04-16T20:49:58.304Z,8.80
2023-04-16T20:53:00.136Z,8.86
2023-04-16T20:56:01.871Z,8.88
2023-04-16T20:59:03.844Z,8.87
2023-04-16T21:02:06.087Z,8.81
2023-04-16T21:05:10.596Z,8.82
2023-04-16T21:08:12.415Z,8.87
2023-04-16T21:11:14.303Z,8.80
2023-04-16T21:14:16.326Z,8.77
2023-04-16T21:17:18.020Z,8.78
2023-04-16T21:20:19.976Z,8.71
2023-04-16T21:23:21.596Z,8.71
2023-04-16T21:26:23.315Z,8.71
2023-04-16T21:29:25.074Z,8.70
2023-04-16T21:32:26.956Z,8.68
2023-04-16T21:35:31.759Z,8.74
2023-04-16T21:38:33.678Z,8.68
2023-04-16T21:41:35.621Z,8.71
2023-04-16T21:44:37.404Z,8.72
2023-04-16T21:47:39.269Z,8.73
2023-04-16T21:50:41.344Z,8.65
2023-04-16T21:53:42.980Z,8.62
2023-04-16T21:56:44.955Z,8.61
2023-04-16T21:59:46.697Z,8.61
2023-04-16T22:02:48.819Z,8.73
2023-04-16T22:05:51.740Z,8.78
2023-04-16T22:08:54.633Z,8.91
2023-04-16T22:11:57.824Z,8.89
2023-04-16T22:15:02.756Z,8.81
2023-04-16T22:18:05.624Z,8.76
2023-04-16T22:21:07.409Z,8.82
2023-04-16T22:24:09.492Z,8.75
2023-04-16T22:27:11.228Z,8.68
2023-04-16T22:30:13.480Z,8.65
2023-04-16T22:33:15.704Z,8.55
2023-04-16T22:36:17.587Z,8.60
2023-04-16T22:39:19.381Z,8.56
2023-04-16T22:42:21.528Z,8.49
2023-04-16T22:45:23.534Z,8.56
2023-04-16T22:48:25.162Z,8.52
2023-04-16T22:51:27.079Z,8.49
2023-04-16T22:54:35.082Z,8.40
2023-04-16T22:57:37.130Z,8.36
2023-04-16T23:00:39.372Z,8.25
2023-04-16T23:03:41.344Z,8.33
2023-04-16T23:06:43.318Z,8.25
2023-04-16T23:09:44.958Z,8.32
2023-04-16T23:12:46.826Z,8.26
2023-04-16T23:15:48.771Z,8.20
2023-04-16T23:18:50.664Z,8.18
2023-04-16T23:21:52.546Z,8.26
2023-04-16T23:24:54.767Z,8.28
2023-04-16T23:27:56.789Z,8.28
2023-04-16T23:30:58.420Z,8.33
2023-04-16T23:34:00.273Z,8.31
2023-04-16T23:37:01.957Z,8.31
2023-04-16T23:40:04.828Z,8.23
2023-04-16T23:43:06.687Z,8.24
2023-04-16T23:46:08.348Z,8.26
2023-04-16T23:49:10.691Z,8.22
2023-04-16T23:52:12.564Z,8.29
2023-04-16T23:55:14.522Z,8.22
2023-04-16T23:58:16.176Z,8.23
